Aviation Digital Data Service (ADDS)

Output produced by METARs form (1911 UTC 25 June 2017)
found at http://www.aviationweather.gov/adds/metars/
 
EYKA 251850Z 13004KT 100V170 9999 -SHRA SCT039CB BKN075 OVC086 16/15 Q1004
TAF EYKA 251700Z 2518/2618 22008G18KT 6000 SCT010 BKN025 
     TEMPO 2518/2524 27018G28KT 1500 TSRA BKN005 BKN015CB 
     TEMPO 2603/2606 SHRA SCT005 BKN015CB 
     BECMG 2606/2607 27018G28KT 
     TEMPO 2607/2612 1500 TSRA BKN005 BKN015CB
       
EYPA 251850Z 25007KT 210V300 9999 BKN010 15/13 Q1003
TAF EYPA 251700Z 2518/2618 25018G28KT 6000 BKN010 BKN020 
     TEMPO 2518/2521 3000 TSRA BKN004 BKN015CB 
     TEMPO 2521/2524 BKN005 
     TEMPO 2608/2612 26036KT 3000 SHRA BKN015CB 
     BECMG 2612/2613 27024G36KT
       
EYSA 251850Z 19008KT 9999 FEW010 BKN120 16/14 Q1002 BLU TEMPO SCT010 BKN021 GRN
TAF EYSA 251700Z 2518/2603 20010KT 7000 BKN010 BKN025 
     TEMPO 2518/2521 23020KT 2500 TSRA BKN005 BKN015CB 
     TEMPO 2600/2603 3000 BR BKN005
       
EYVI 251850Z 22012KT 9999 BKN042CB BKN100 19/14 Q1005 TEMPO 3000 SHRA
TAF EYVI 251700Z 2518/2618 23012KT 7000 SCT010 BKN025 
     TEMPO 2518/2524 27024KT 1500 TSRA BKN005 BKN015CB 
     TEMPO 2607/2617 27028KT 3000 TSRA BKN005 BKN015CB